Flight Track Log - Related Links

Times and Time Zones

All times are in EDT time to prevent confusion due to time zone crossing. See the FLG4208 flight status page for this flight to view local times or setup timezone preferences in your user account.

Time Position Orientation Groundspeed Altitude Reporting Facility
EDT Latitude Longitude Course Direction KTS MPH feet Rate Location/Type
Fri 10:16:56 PM 42.1994 -83.3608 90° East 169 194 1,400  Level Cleveland Center
Fri 10:17:51 PM 42.1536 -83.3589 178° South 207 238 3,100 1,862 Climbing Cleveland Center
Fri 10:18:52 PM 42.0978 -83.3342 162° South 261 300 5,000 1,934 Climbing Cleveland Center
Fri 10:19:00 PM 42.2814 -82.9244 71° East  Level FlightAware Approximate
Fri 10:19:52 PM 42.0836 -83.2383 101° East 285 328 7,000  Level Cleveland Center
Fri 10:20:00 PM 42.3101 -82.7829 75° East  Level FlightAware Approximate
Fri 10:21:00 PM 42.3279 -82.6384 82° East  Level FlightAware Approximate
Fri 10:21:43 PM 42.1414 -83.0669 66° East 290 334 11,100  Level Cleveland Center
Fri 10:22:00 PM 42.3500 -82.4957 90° East  Level FlightAware Approximate
Fri 10:22:43 PM 42.2278 -83.0339 16° North 283 326 12,900  Level Cleveland Center
Fri 10:23:43 PM 42.2978 -82.9750 32° Northeast 286 329 13,000 800 Climbing Cleveland Center
Fri 10:24:43 PM 42.3169 -82.8492 78° East 289 333 14,500 1,450 Climbing Cleveland Center
Fri 10:25:43 PM 42.3281 -82.7119 84° East 322 371 15,900 1,400 Climbing Cleveland Center
Fri 10:26:43 PM 42.3242 -82.5686 92° East 352 405 17,300 1,200 Climbing Cleveland Center
Fri 10:27:43 PM 42.3206 -82.4197 92° East 371 427 18,300 1,050 Climbing Cleveland Center
Fri 10:28:43 PM 42.3167 -82.2681 92° East 389 448 19,400 1,100 Climbing Cleveland Center
Fri 10:29:43 PM 42.3125 -82.1133 92° East 407 468 20,500 1,100 Climbing Cleveland Center
Fri 10:30:43 PM 42.3103 -81.9561 91° East 414 476 21,600 950 Climbing Cleveland Center
Fri 10:31:43 PM 42.3056 -81.8156 93° East 420 483 22,400 850 Climbing Cleveland Center
Fri 10:32:43 PM 42.2989 -81.6528 93° East 420 483 23,300 900 Climbing Cleveland Center
Fri 10:33:43 PM 42.2942 -81.4897 92° East 425 489 24,200 700 Climbing Cleveland Center
Fri 10:34:43 PM 42.2889 -81.3269 92° East 425 489 24,700 500 Climbing Cleveland Center
Fri 10:35:43 PM 42.2817 -81.1586 93° East 438 504 25,200 500 Climbing Cleveland Center
Fri 10:36:43 PM 42.2761 -80.9872 92° East 452 520 25,700 500 Climbing Cleveland Center
Fri 10:37:43 PM 42.2683 -80.7964 93° East 457 526 26,200 500 Climbing Cleveland Center
Fri 10:38:43 PM 42.2600 -80.6253 94° East 457 526 26,700 500 Climbing Cleveland Center
Fri 10:39:43 PM 42.2558 -80.4542 92° East 457 526 27,200 500 Climbing Cleveland Center
Fri 10:40:43 PM 42.2681 -80.2831 84° East 454 522 27,700 500 Climbing Cleveland Center
Fri 10:41:43 PM 42.3072 -80.1256 71° East 438 504 28,200 500 Climbing Cleveland Center
Fri 10:42:43 PM 42.3481 -79.9622 71° East 449 517 28,700 500 Climbing Cleveland Center
Fri 10:43:43 PM 42.3825 -79.8017 74° East 449 517 29,200 500 Climbing Cleveland Center
Fri 10:44:43 PM 42.4189 -79.6467 72° East 444 511 29,700 500 Climbing Cleveland Center
Fri 10:45:43 PM 42.4550 -79.4886 73° East 444 511 30,200 500 Climbing Cleveland Center
Fri 10:46:43 PM 42.4889 -79.3442 72° East 444 511 30,700 400 Climbing Cleveland Center
Fri 10:47:43 PM 42.5267 -79.1831 72° East 444 511 31,000 150 Climbing Cleveland Center
Fri 10:48:43 PM 42.5644 -79.0242 72° East 444 511 31,000  Level Cleveland Center
Fri 10:49:43 PM 42.5994 -78.8597 74° East 444 511 31,000  Level Cleveland Center
Fri 10:50:43 PM 42.6367 -78.6950 73° East 444 511 31,000  Level Cleveland Center
Fri 10:51:43 PM 42.6753 -78.5272 73° East 450 518 31,000  Level Cleveland Center
Fri 10:52:43 PM 42.7097 -78.3594 74° East 450 518 31,000  Level Cleveland Center
Fri 10:53:43 PM 42.7481 -78.1911 73° East 455 524 31,000  Level Cleveland Center
Fri 10:54:43 PM 42.7881 -78.0086 73° East 455 524 31,000  Level Cleveland Center
Fri 10:55:43 PM 42.8236 -77.8431 74° East 460 529 31,000  Level Cleveland Center
Fri 10:56:43 PM 42.8592 -77.6772 74° East 460 529 31,000  Level Cleveland Center
Fri 10:57:43 PM 42.9200 -77.5297 61° Northeast 452 520 31,000  Level Cleveland Center
Fri 10:58:43 PM 42.9831 -77.3875 59° Northeast 438 504 31,000  Level Cleveland Center
Fri 10:59:43 PM 43.0456 -77.2422 59° Northeast 438 504 31,000  Level Cleveland Center
Fri 11:02:03 PM 43.1856 -76.9258 59° Northeast 437 503 31,000  Level Boston Center
Fri 11:03:03 PM 43.2475 -76.7792 60° Northeast 437 503 31,000  Level Boston Center
Fri 11:04:03 PM 43.3181 -76.6214 58° Northeast 432 497 31,000  Level Boston Center
Fri 11:05:03 PM 43.3817 -76.4714 60° Northeast 432 497 31,000  Level Boston Center
Fri 11:06:15 PM 43.4450 -76.3269 59° Northeast 432 497 31,000  Level Boston Center
Fri 11:07:15 PM 43.5200 -76.1456 60° Northeast 432 497 31,000  Level Boston Center
Fri 11:08:15 PM 43.5831 -75.9975 60° Northeast 437 503 31,000  Level Boston Center
Fri 11:09:27 PM 43.6378 -75.8428 64° Northeast 437 503 31,000  Level Boston Center
Fri 11:10:27 PM 43.7017 -75.6511 65° Northeast 444 511 31,000  Level Boston Center
Fri 11:11:27 PM 43.7472 -75.5069 66° East 450 518 31,000  Level Boston Center
Fri 11:12:27 PM 43.7994 -75.3428 66° East 455 524 31,000 -250 Level Boston Center
Fri 11:13:27 PM 43.8494 -75.1781 67° East 460 529 30,500 -1,450 Descending Boston Center
Fri 11:14:27 PM 43.9011 -75.0192 66° East 454 522 28,100 -2,350 Descending Boston Center
Fri 11:15:27 PM 43.9481 -74.8681 67° East 438 504 25,800 -2,150 Descending Boston Center
Fri 11:16:27 PM 43.9950 -74.7172 67° East 432 497 23,800 -2,000 Descending Boston Center
Fri 11:17:27 PM 44.0439 -74.5631 66° East 432 497 21,800 -1,800 Descending Boston Center
Fri 11:18:27 PM 44.0814 -74.4400 67° East 432 497 20,200 -2,050 Descending Boston Center
Fri 11:19:27 PM 44.1364 -74.2597 67° East 432 497 17,700 -2,400 Descending Boston Center
Fri 11:20:27 PM 44.1847 -74.1106 66° East 410 472 15,400 -2,100 Descending Boston Center
Fri 11:21:27 PM 44.2261 -73.9728 67° East 386 444 13,500 -1,700 Descending Boston Center
Fri 11:22:27 PM 44.2608 -73.8606 67° East 386 444 12,000 -1,550 Descending Boston Center
Fri 11:23:27 PM 44.3167 -73.7342 58° Northeast 345 397 10,400 -1,550 Descending Boston Center
Fri 11:24:27 PM 44.3592 -73.6392 58° Northeast 296 341 8,900 -1,550 Descending Boston Center
Fri 11:25:27 PM 44.3997 -73.5528 57° Northeast 271 312 7,300 -1,650 Descending Boston Center
Fri 11:26:27 PM 44.4381 -73.4664 58° Northeast 261 300 5,600 -1,500 Descending Boston Center
Fri 11:27:27 PM 44.4742 -73.3856 58° Northeast 256 295 4,300 -1,300 Descending Boston Center

Login

Don't have an account? Register now (free) for customized features, flight alerts, and more!